ESNS

Skellefteå Airport

Skellefteå, Sweden
TAF ESNS 210830Z 2109/2118 27010KT CAVOK BECMG 2113/2115 12006KT
Issued Valid From Valid To
Jun-21 @ 08:30 UTC
(2 hours ago)
Jun-21 @ 09:00 UTC
(an hour ago)
Jun-21 @ 18:00 UTC
(in 8 hours)
Jun-21 @ 09:00 to Jun-21 @ 13:00
TAF ESNS 210830Z 2109/2118 27010KT CAVOK
Wind Visibility Clouds Conditions
270° at 10 knots 10,000+ meters
  • No significant clouds
Becoming Jun-21 @ 13:00 to Jun-21 @ 18:00
BECMG 2113/2115 12006KT
Wind Visibility Clouds Conditions
120° at 6 knots 10,000+ meters
  • No significant clouds
TAF ESNS 210830Z 2109/2118 27010KT CAVOK BECMG 2113/2115 12006KT
Issued Jun-21 @ 08:30 UTC
(2 hours ago)
Valid From Jun-21 @ 09:00 UTC
(an hour ago)
Valid To Jun-21 @ 18:00 UTC
(in 8 hours)
Jun-21 @ 09:00 - Jun-21 @ 13:00
Wind Visibility
270° at 10 knots 10,000+ meters
Clouds
  • No significant clouds
Conditions
Becoming Jun-21 @ 13:00 - Jun-21 @ 18:00
Wind Visibility
120° at 6 knots 10,000+ meters
Clouds
  • No significant clouds
Conditions